<?xml version="1.0" encoding="UTF-8" standalone="no" ?>
<gpx xmlns="http://www.topografix.com/GPX/1/1" xmlns:xsi="http://www.w3.org/2001/XMLSchema-instance" xsi:schemaLocation="http://www.topografix.com/GPX/1/1 http://www.topografix.com/GPX/1/1/gpx.xsd" version="1.1" creator="VisuGPX - https://www.visugpx.com">
  <metadata>
    <name>Parcours au col du Mollendruz</name>
    <desc><![CDATA[Un tour du sentier pédestre du col du Mollendruz (Suisse)]]></desc>
  </metadata>
  <trk>
    <name><![CDATA[Parcours au col du Mollendruz_1]]></name>
    <trkseg>
      <trkpt lat="46.64993" lon="6.36627">
        <ele>1176.3103027344</ele>
        <time>2012-01-17T14:42:59Z</time>
      </trkpt>
      <trkpt lat="46.64994" lon="6.36628">
        <ele>1176.3103027344</ele>
        <time>2012-01-17T14:43:00Z</time>
      </trkpt>
      <trkpt lat="46.64996" lon="6.36629">
        <ele>1176.3103027344</ele>
        <time>2012-01-17T14:43:01Z</time>
      </trkpt>
      <trkpt lat="46.65009" lon="6.36644">
        <ele>1176.791015625</ele>
        <time>2012-01-17T14:43:08Z</time>
      </trkpt>
      <trkpt lat="46.65017" lon="6.36657">
        <ele>1176.3103027344</ele>
        <time>2012-01-17T14:43:13Z</time>
      </trkpt>
      <trkpt lat="46.6503" lon="6.36675">
        <ele>1176.791015625</ele>
        <time>2012-01-17T14:43:20Z</time>
      </trkpt>
      <trkpt lat="46.65041" lon="6.36688">
        <ele>1177.7521972656</ele>
        <time>2012-01-17T14:43:26Z</time>
      </trkpt>
      <trkpt lat="46.65052" lon="6.36703">
        <ele>1178.2329101562</ele>
        <time>2012-01-17T14:43:32Z</time>
      </trkpt>
      <trkpt lat="46.65064" lon="6.36717">
        <ele>1180.6364746094</ele>
        <time>2012-01-17T14:43:38Z</time>
      </trkpt>
      <trkpt lat="46.65071" lon="6.36726">
        <ele>1181.59765625</ele>
        <time>2012-01-17T14:43:42Z</time>
      </trkpt>
      <trkpt lat="46.65084" lon="6.36739">
        <ele>1182.5590820312</ele>
        <time>2012-01-17T14:43:48Z</time>
      </trkpt>
      <trkpt lat="46.65097" lon="6.36754">
        <ele>1184.4816894531</ele>
        <time>2012-01-17T14:43:54Z</time>
      </trkpt>
      <trkpt lat="46.65111" lon="6.36771">
        <ele>1184.9624023438</ele>
        <time>2012-01-17T14:44:01Z</time>
      </trkpt>
      <trkpt lat="46.65123" lon="6.36785">
        <ele>1184.4816894531</ele>
        <time>2012-01-17T14:44:07Z</time>
      </trkpt>
      <trkpt lat="46.65125" lon="6.36787">
        <ele>1184.9624023438</ele>
        <time>2012-01-17T14:44:08Z</time>
      </trkpt>
      <trkpt lat="46.65139" lon="6.36804">
        <ele>1185.9235839844</ele>
        <time>2012-01-17T14:44:15Z</time>
      </trkpt>
      <trkpt lat="46.65149" lon="6.36816">
        <ele>1186.404296875</ele>
        <time>2012-01-17T14:44:20Z</time>
      </trkpt>
      <trkpt lat="46.65163" lon="6.36833">
        <ele>1189.2880859375</ele>
        <time>2012-01-17T14:44:27Z</time>
      </trkpt>
      <trkpt lat="46.65174" lon="6.36845">
        <ele>1190.2495117188</ele>
        <time>2012-01-17T14:44:32Z</time>
      </trkpt>
      <trkpt lat="46.65186" lon="6.3686">
        <ele>1189.7687988281</ele>
        <time>2012-01-17T14:44:38Z</time>
      </trkpt>
      <trkpt lat="46.65197" lon="6.36877">
        <ele>1189.7687988281</ele>
        <time>2012-01-17T14:44:44Z</time>
      </trkpt>
      <trkpt lat="46.65208" lon="6.36892">
        <ele>1190.2495117188</ele>
        <time>2012-01-17T14:44:50Z</time>
      </trkpt>
      <trkpt lat="46.65218" lon="6.36904">
        <ele>1190.2495117188</ele>
        <time>2012-01-17T14:44:55Z</time>
      </trkpt>
      <trkpt lat="46.65226" lon="6.36913">
        <ele>1190.7299804688</ele>
        <time>2012-01-17T14:44:59Z</time>
      </trkpt>
      <trkpt lat="46.65238" lon="6.36929">
        <ele>1190.7299804688</ele>
        <time>2012-01-17T14:45:06Z</time>
      </trkpt>
      <trkpt lat="46.65248" lon="6.36942">
        <ele>1191.2106933594</ele>
        <time>2012-01-17T14:45:11Z</time>
      </trkpt>
      <trkpt lat="46.65261" lon="6.36959">
        <ele>1191.69140625</ele>
        <time>2012-01-17T14:45:18Z</time>
      </trkpt>
      <trkpt lat="46.65274" lon="6.36973">
        <ele>1192.6528320312</ele>
        <time>2012-01-17T14:45:24Z</time>
      </trkpt>
      <trkpt lat="46.65284" lon="6.36989">
        <ele>1191.69140625</ele>
        <time>2012-01-17T14:45:30Z</time>
      </trkpt>
      <trkpt lat="46.65292" lon="6.36998">
        <ele>1191.69140625</ele>
        <time>2012-01-17T14:45:34Z</time>
      </trkpt>
      <trkpt lat="46.65303" lon="6.37012">
        <ele>1191.2106933594</ele>
        <time>2012-01-17T14:45:40Z</time>
      </trkpt>
      <trkpt lat="46.65317" lon="6.37029">
        <ele>1192.6528320312</ele>
        <time>2012-01-17T14:45:47Z</time>
      </trkpt>
      <trkpt lat="46.65325" lon="6.37046">
        <ele>1193.1333007812</ele>
        <time>2012-01-17T14:45:53Z</time>
      </trkpt>
      <trkpt lat="46.6533" lon="6.37059">
        <ele>1192.1721191406</ele>
        <time>2012-01-17T14:45:58Z</time>
      </trkpt>
      <trkpt lat="46.65334" lon="6.37068">
        <ele>1191.69140625</ele>
        <time>2012-01-17T14:46:01Z</time>
      </trkpt>
      <trkpt lat="46.65339" lon="6.37083">
        <ele>1191.2106933594</ele>
        <time>2012-01-17T14:46:06Z</time>
      </trkpt>
      <trkpt lat="46.65347" lon="6.37098">
        <ele>1192.1721191406</ele>
        <time>2012-01-17T14:46:11Z</time>
      </trkpt>
      <trkpt lat="46.65354" lon="6.37113">
        <ele>1193.1333007812</ele>
        <time>2012-01-17T14:46:16Z</time>
      </trkpt>
      <trkpt lat="46.65361" lon="6.37129">
        <ele>1194.0947265625</ele>
        <time>2012-01-17T14:46:22Z</time>
      </trkpt>
      <trkpt lat="46.65374" lon="6.37155">
        <ele>1194.0947265625</ele>
        <time>2012-01-17T14:46:31Z</time>
      </trkpt>
      <trkpt lat="46.65384" lon="6.37178">
        <ele>1195.5366210938</ele>
        <time>2012-01-17T14:46:39Z</time>
      </trkpt>
      <trkpt lat="46.65392" lon="6.37195">
        <ele>1196.017578125</ele>
        <time>2012-01-17T14:46:45Z</time>
      </trkpt>
      <trkpt lat="46.65403" lon="6.37215">
        <ele>1197.9401855469</ele>
        <time>2012-01-17T14:46:52Z</time>
      </trkpt>
      <trkpt lat="46.6541" lon="6.37234">
        <ele>1198.9013671875</ele>
        <time>2012-01-17T14:46:58Z</time>
      </trkpt>
      <trkpt lat="46.65415" lon="6.37246">
        <ele>1199.8627929688</ele>
        <time>2012-01-17T14:47:02Z</time>
      </trkpt>
      <trkpt lat="46.65418" lon="6.37258">
        <ele>1200.8239746094</ele>
        <time>2012-01-17T14:47:06Z</time>
      </trkpt>
      <trkpt lat="46.65421" lon="6.3727">
        <ele>1200.8239746094</ele>
        <time>2012-01-17T14:47:10Z</time>
      </trkpt>
      <trkpt lat="46.65421" lon="6.37276">
        <ele>1200.8239746094</ele>
        <time>2012-01-17T14:47:12Z</time>
      </trkpt>
      <trkpt lat="46.65424" lon="6.37289">
        <ele>1200.8239746094</ele>
        <time>2012-01-17T14:47:16Z</time>
      </trkpt>
      <trkpt lat="46.6543" lon="6.37309">
        <ele>1200.3435058594</ele>
        <time>2012-01-17T14:47:22Z</time>
      </trkpt>
      <trkpt lat="46.65438" lon="6.37329">
        <ele>1199.8627929688</ele>
        <time>2012-01-17T14:47:28Z</time>
      </trkpt>
      <trkpt lat="46.65446" lon="6.37341">
        <ele>1199.3820800781</ele>
        <time>2012-01-17T14:47:32Z</time>
      </trkpt>
      <trkpt lat="46.65454" lon="6.37357">
        <ele>1198.9013671875</ele>
        <time>2012-01-17T14:47:37Z</time>
      </trkpt>
      <trkpt lat="46.65464" lon="6.3737">
        <ele>1199.3820800781</ele>
        <time>2012-01-17T14:47:42Z</time>
      </trkpt>
      <trkpt lat="46.65472" lon="6.37383">
        <ele>1200.3435058594</ele>
        <time>2012-01-17T14:47:47Z</time>
      </trkpt>
      <trkpt lat="46.65478" lon="6.37394">
        <ele>1199.3820800781</ele>
        <time>2012-01-17T14:47:51Z</time>
      </trkpt>
      <trkpt lat="46.65486" lon="6.37404">
        <ele>1198.9013671875</ele>
        <time>2012-01-17T14:47:55Z</time>
      </trkpt>
      <trkpt lat="46.65497" lon="6.37419">
        <ele>1198.9013671875</ele>
        <time>2012-01-17T14:48:01Z</time>
      </trkpt>
      <trkpt lat="46.65506" lon="6.37436">
        <ele>1199.3820800781</ele>
        <time>2012-01-17T14:48:07Z</time>
      </trkpt>
      <trkpt lat="46.65515" lon="6.37449">
        <ele>1199.8627929688</ele>
        <time>2012-01-17T14:48:12Z</time>
      </trkpt>
      <trkpt lat="46.65524" lon="6.37465">
        <ele>1200.3435058594</ele>
        <time>2012-01-17T14:48:17Z</time>
      </trkpt>
      <trkpt lat="46.65533" lon="6.3748">
        <ele>1202.2658691406</ele>
        <time>2012-01-17T14:48:22Z</time>
      </trkpt>
      <trkpt lat="46.65539" lon="6.37494">
        <ele>1202.2658691406</ele>
        <time>2012-01-17T14:48:27Z</time>
      </trkpt>
      <trkpt lat="46.6555" lon="6.37512">
        <ele>1203.7080078125</ele>
        <time>2012-01-17T14:48:33Z</time>
      </trkpt>
      <trkpt lat="46.65566" lon="6.37533">
        <ele>1205.1499023438</ele>
        <time>2012-01-17T14:48:41Z</time>
      </trkpt>
      <trkpt lat="46.65573" lon="6.37544">
        <ele>1206.1110839844</ele>
        <time>2012-01-17T14:48:45Z</time>
      </trkpt>
      <trkpt lat="46.65578" lon="6.37561">
        <ele>1206.591796875</ele>
        <time>2012-01-17T14:48:50Z</time>
      </trkpt>
      <trkpt lat="46.65579" lon="6.37579">
        <ele>1206.1110839844</ele>
        <time>2012-01-17T14:48:55Z</time>
      </trkpt>
      <trkpt lat="46.65578" lon="6.37597">
        <ele>1205.1499023438</ele>
        <time>2012-01-17T14:49:00Z</time>
      </trkpt>
      <trkpt lat="46.6558" lon="6.37625">
        <ele>1204.6691894531</ele>
        <time>2012-01-17T14:49:08Z</time>
      </trkpt>
      <trkpt lat="46.65581" lon="6.37655">
        <ele>1204.1887207031</ele>
        <time>2012-01-17T14:49:16Z</time>
      </trkpt>
      <trkpt lat="46.65582" lon="6.37686">
        <ele>1204.6691894531</ele>
        <time>2012-01-17T14:49:24Z</time>
      </trkpt>
      <trkpt lat="46.6558" lon="6.37718">
        <ele>1204.6691894531</ele>
        <time>2012-01-17T14:49:32Z</time>
      </trkpt>
      <trkpt lat="46.65577" lon="6.37742">
        <ele>1204.6691894531</ele>
        <time>2012-01-17T14:49:38Z</time>
      </trkpt>
      <trkpt lat="46.65575" lon="6.37761">
        <ele>1205.6306152344</ele>
        <time>2012-01-17T14:49:43Z</time>
      </trkpt>
      <trkpt lat="46.6557" lon="6.37786">
        <ele>1205.6306152344</ele>
        <time>2012-01-17T14:49:50Z</time>
      </trkpt>
      <trkpt lat="46.65563" lon="6.37805">
        <ele>1205.6306152344</ele>
        <time>2012-01-17T14:49:56Z</time>
      </trkpt>
      <trkpt lat="46.65552" lon="6.3783">
        <ele>1204.6691894531</ele>
        <time>2012-01-17T14:50:04Z</time>
      </trkpt>
      <trkpt lat="46.65545" lon="6.37851">
        <ele>1205.1499023438</ele>
        <time>2012-01-17T14:50:10Z</time>
      </trkpt>
      <trkpt lat="46.65535" lon="6.37867">
        <ele>1205.6306152344</ele>
        <time>2012-01-17T14:50:16Z</time>
      </trkpt>
      <trkpt lat="46.65531" lon="6.37872">
        <ele>1206.1110839844</ele>
        <time>2012-01-17T14:50:18Z</time>
      </trkpt>
      <trkpt lat="46.65524" lon="6.3788">
        <ele>1205.6306152344</ele>
        <time>2012-01-17T14:50:22Z</time>
      </trkpt>
      <trkpt lat="46.65506" lon="6.37886">
        <ele>1207.5532226562</ele>
        <time>2012-01-17T14:50:28Z</time>
      </trkpt>
      <trkpt lat="46.65492" lon="6.37887">
        <ele>1212.3598632812</ele>
        <time>2012-01-17T14:50:33Z</time>
      </trkpt>
      <trkpt lat="46.6548" lon="6.37888">
        <ele>1215.2438964844</ele>
        <time>2012-01-17T14:50:37Z</time>
      </trkpt>
      <trkpt lat="46.65461" lon="6.37883">
        <ele>1216.6857910156</ele>
        <time>2012-01-17T14:50:44Z</time>
      </trkpt>
      <trkpt lat="46.65448" lon="6.3788">
        <ele>1215.724609375</ele>
        <time>2012-01-17T14:50:48Z</time>
      </trkpt>
      <trkpt lat="46.65439" lon="6.37876">
        <ele>1214.7631835938</ele>
        <time>2012-01-17T14:50:52Z</time>
      </trkpt>
      <trkpt lat="46.6543" lon="6.37869">
        <ele>1211.8791503906</ele>
        <time>2012-01-17T14:50:57Z</time>
      </trkpt>
      <trkpt lat="46.65418" lon="6.37864">
        <ele>1209.9562988281</ele>
        <time>2012-01-17T14:51:02Z</time>
      </trkpt>
      <trkpt lat="46.65411" lon="6.37859">
        <ele>1209.9562988281</ele>
        <time>2012-01-17T14:51:05Z</time>
      </trkpt>
      <trkpt lat="46.65399" lon="6.37849">
        <ele>1206.1110839844</ele>
        <time>2012-01-17T14:51:10Z</time>
      </trkpt>
      <trkpt lat="46.65384" lon="6.37838">
        <ele>1203.2272949219</ele>
        <time>2012-01-17T14:51:17Z</time>
      </trkpt>
      <trkpt lat="46.65381" lon="6.37837">
        <ele>1202.7465820312</ele>
        <time>2012-01-17T14:51:18Z</time>
      </trkpt>
      <trkpt lat="46.65369" lon="6.37842">
        <ele>1201.7854003906</ele>
        <time>2012-01-17T14:51:23Z</time>
      </trkpt>
      <trkpt lat="46.65365" lon="6.3785">
        <ele>1199.8627929688</ele>
        <time>2012-01-17T14:51:26Z</time>
      </trkpt>
      <trkpt lat="46.65361" lon="6.37868">
        <ele>1198.9013671875</ele>
        <time>2012-01-17T14:51:32Z</time>
      </trkpt>
      <trkpt lat="46.65354" lon="6.37885">
        <ele>1198.4206542969</ele>
        <time>2012-01-17T14:51:37Z</time>
      </trkpt>
      <trkpt lat="46.65349" lon="6.37901">
        <ele>1197.9401855469</ele>
        <time>2012-01-17T14:51:42Z</time>
      </trkpt>
      <trkpt lat="46.65345" lon="6.37913">
        <ele>1197.4594726562</ele>
        <time>2012-01-17T14:51:46Z</time>
      </trkpt>
      <trkpt lat="46.6534" lon="6.37922">
        <ele>1196.017578125</ele>
        <time>2012-01-17T14:51:49Z</time>
      </trkpt>
      <trkpt lat="46.65337" lon="6.37942">
        <ele>1192.6528320312</ele>
        <time>2012-01-17T14:51:55Z</time>
      </trkpt>
      <trkpt lat="46.65337" lon="6.37962">
        <ele>1190.2495117188</ele>
        <time>2012-01-17T14:52:00Z</time>
      </trkpt>
      <trkpt lat="46.65338" lon="6.37981">
        <ele>1187.3654785156</ele>
        <time>2012-01-17T14:52:05Z</time>
      </trkpt>
      <trkpt lat="46.65336" lon="6.38001">
        <ele>1187.8461914062</ele>
        <time>2012-01-17T14:52:10Z</time>
      </trkpt>
      <trkpt lat="46.65337" lon="6.38021">
        <ele>1187.8461914062</ele>
        <time>2012-01-17T14:52:15Z</time>
      </trkpt>
      <trkpt lat="46.6534" lon="6.38037">
        <ele>1187.8461914062</ele>
        <time>2012-01-17T14:52:19Z</time>
      </trkpt>
      <trkpt lat="46.65343" lon="6.38054">
        <ele>1187.3654785156</ele>
        <time>2012-01-17T14:52:23Z</time>
      </trkpt>
      <trkpt lat="46.65348" lon="6.38072">
        <ele>1186.404296875</ele>
        <time>2012-01-17T14:52:28Z</time>
      </trkpt>
      <trkpt lat="46.65356" lon="6.3809">
        <ele>1184.9624023438</ele>
        <time>2012-01-17T14:52:34Z</time>
      </trkpt>
      <trkpt lat="46.65364" lon="6.38103">
        <ele>1184.9624023438</ele>
        <time>2012-01-17T14:52:39Z</time>
      </trkpt>
      <trkpt lat="46.65372" lon="6.38118">
        <ele>1186.404296875</ele>
        <time>2012-01-17T14:52:44Z</time>
      </trkpt>
      <trkpt lat="46.6538" lon="6.38134">
        <ele>1187.3654785156</ele>
        <time>2012-01-17T14:52:49Z</time>
      </trkpt>
      <trkpt lat="46.65387" lon="6.38146">
        <ele>1186.884765625</ele>
        <time>2012-01-17T14:52:53Z</time>
      </trkpt>
      <trkpt lat="46.65393" lon="6.38161">
        <ele>1186.404296875</ele>
        <time>2012-01-17T14:52:58Z</time>
      </trkpt>
      <trkpt lat="46.654" lon="6.38174">
        <ele>1186.404296875</ele>
        <time>2012-01-17T14:53:02Z</time>
      </trkpt>
      <trkpt lat="46.65409" lon="6.38193">
        <ele>1186.404296875</ele>
        <time>2012-01-17T14:53:08Z</time>
      </trkpt>
      <trkpt lat="46.65417" lon="6.38208">
        <ele>1187.3654785156</ele>
        <time>2012-01-17T14:53:13Z</time>
      </trkpt>
      <trkpt lat="46.65425" lon="6.3822">
        <ele>1186.884765625</ele>
        <time>2012-01-17T14:53:18Z</time>
      </trkpt>
      <trkpt lat="46.65433" lon="6.38228">
        <ele>1187.3654785156</ele>
        <time>2012-01-17T14:53:22Z</time>
      </trkpt>
      <trkpt lat="46.65441" lon="6.38233">
        <ele>1188.8076171875</ele>
        <time>2012-01-17T14:53:26Z</time>
      </trkpt>
      <trkpt lat="46.65452" lon="6.38237">
        <ele>1190.7299804688</ele>
        <time>2012-01-17T14:53:32Z</time>
      </trkpt>
      <trkpt lat="46.65463" lon="6.38238">
        <ele>1191.69140625</ele>
        <time>2012-01-17T14:53:37Z</time>
      </trkpt>
      <trkpt lat="46.65475" lon="6.38242">
        <ele>1192.6528320312</ele>
        <time>2012-01-17T14:53:42Z</time>
      </trkpt>
      <trkpt lat="46.65485" lon="6.3825">
        <ele>1194.0947265625</ele>
        <time>2012-01-17T14:53:46Z</time>
      </trkpt>
      <trkpt lat="46.65497" lon="6.3826">
        <ele>1194.5751953125</ele>
        <time>2012-01-17T14:53:52Z</time>
      </trkpt>
      <trkpt lat="46.65506" lon="6.38268">
        <ele>1194.5751953125</ele>
        <time>2012-01-17T14:53:57Z</time>
      </trkpt>
      <trkpt lat="46.65508" lon="6.3827">
        <ele>1195.0559082031</ele>
        <time>2012-01-17T14:53:58Z</time>
      </trkpt>
      <trkpt lat="46.65519" lon="6.38281">
        <ele>1195.5366210938</ele>
        <time>2012-01-17T14:54:04Z</time>
      </trkpt>
      <trkpt lat="46.65529" lon="6.38294">
        <ele>1195.5366210938</ele>
        <time>2012-01-17T14:54:10Z</time>
      </trkpt>
      <trkpt lat="46.65533" lon="6.38309">
        <ele>1195.5366210938</ele>
        <time>2012-01-17T14:54:15Z</time>
      </trkpt>
      <trkpt lat="46.65536" lon="6.38323">
        <ele>1195.0559082031</ele>
        <time>2012-01-17T14:54:19Z</time>
      </trkpt>
      <trkpt lat="46.65538" lon="6.38345">
        <ele>1195.0559082031</ele>
        <time>2012-01-17T14:54:25Z</time>
      </trkpt>
      <trkpt lat="46.65541" lon="6.38362">
        <ele>1194.0947265625</ele>
        <time>2012-01-17T14:54:30Z</time>
      </trkpt>
      <trkpt lat="46.65548" lon="6.38372">
        <ele>1193.1333007812</ele>
        <time>2012-01-17T14:54:34Z</time>
      </trkpt>
      <trkpt lat="46.65561" lon="6.38382">
        <ele>1193.6140136719</ele>
        <time>2012-01-17T14:54:40Z</time>
      </trkpt>
      <trkpt lat="46.65578" lon="6.38392">
        <ele>1194.0947265625</ele>
        <time>2012-01-17T14:54:47Z</time>
      </trkpt>
      <trkpt lat="46.6559" lon="6.38399">
        <ele>1194.5751953125</ele>
        <time>2012-01-17T14:54:52Z</time>
      </trkpt>
      <trkpt lat="46.65604" lon="6.38407">
        <ele>1196.017578125</ele>
        <time>2012-01-17T14:54:58Z</time>
      </trkpt>
      <trkpt lat="46.65616" lon="6.38411">
        <ele>1197.4594726562</ele>
        <time>2012-01-17T14:55:03Z</time>
      </trkpt>
      <trkpt lat="46.65632" lon="6.38414">
        <ele>1198.9013671875</ele>
        <time>2012-01-17T14:55:09Z</time>
      </trkpt>
      <trkpt lat="46.65648" lon="6.38414">
        <ele>1197.9401855469</ele>
        <time>2012-01-17T14:55:15Z</time>
      </trkpt>
      <trkpt lat="46.65661" lon="6.38412">
        <ele>1195.5366210938</ele>
        <time>2012-01-17T14:55:21Z</time>
      </trkpt>
      <trkpt lat="46.65676" lon="6.38407">
        <ele>1196.017578125</ele>
        <time>2012-01-17T14:55:27Z</time>
      </trkpt>
      <trkpt lat="46.65693" lon="6.38411">
        <ele>1196.9787597656</ele>
        <time>2012-01-17T14:55:34Z</time>
      </trkpt>
      <trkpt lat="46.65705" lon="6.38423">
        <ele>1198.9013671875</ele>
        <time>2012-01-17T14:55:40Z</time>
      </trkpt>
      <trkpt lat="46.65715" lon="6.38443">
        <ele>1199.8627929688</ele>
        <time>2012-01-17T14:55:47Z</time>
      </trkpt>
      <trkpt lat="46.65719" lon="6.38464">
        <ele>1200.3435058594</ele>
        <time>2012-01-17T14:55:53Z</time>
      </trkpt>
      <trkpt lat="46.65719" lon="6.38482">
        <ele>1199.8627929688</ele>
        <time>2012-01-17T14:55:58Z</time>
      </trkpt>
      <trkpt lat="46.65719" lon="6.38496">
        <ele>1198.9013671875</ele>
        <time>2012-01-17T14:56:02Z</time>
      </trkpt>
      <trkpt lat="46.65718" lon="6.38514">
        <ele>1198.4206542969</ele>
        <time>2012-01-17T14:56:07Z</time>
      </trkpt>
      <trkpt lat="46.65713" lon="6.38535">
        <ele>1197.4594726562</ele>
        <time>2012-01-17T14:56:13Z</time>
      </trkpt>
      <trkpt lat="46.65712" lon="6.38539">
        <ele>1196.4982910156</ele>
        <time>2012-01-17T14:56:14Z</time>
      </trkpt>
      <trkpt lat="46.65712" lon="6.38556">
        <ele>1195.5366210938</ele>
        <time>2012-01-17T14:57:55Z</time>
      </trkpt>
      <trkpt lat="46.65712" lon="6.38556">
        <ele>1195.5366210938</ele>
        <time>2012-01-17T14:57:56Z</time>
      </trkpt>
      <trkpt lat="46.65711" lon="6.38567">
        <ele>1195.0559082031</ele>
        <time>2012-01-17T14:58:02Z</time>
      </trkpt>
      <trkpt lat="46.65707" lon="6.38581">
        <ele>1194.5751953125</ele>
        <time>2012-01-17T14:58:10Z</time>
      </trkpt>
      <trkpt lat="46.65701" lon="6.38595">
        <ele>1193.1333007812</ele>
        <time>2012-01-17T14:58:15Z</time>
      </trkpt>
      <trkpt lat="46.65691" lon="6.38621">
        <ele>1191.2106933594</ele>
        <time>2012-01-17T14:58:22Z</time>
      </trkpt>
      <trkpt lat="46.65683" lon="6.38645">
        <ele>1189.2880859375</ele>
        <time>2012-01-17T14:58:28Z</time>
      </trkpt>
      <trkpt lat="46.65678" lon="6.38663">
        <ele>1188.8076171875</ele>
        <time>2012-01-17T14:58:32Z</time>
      </trkpt>
      <trkpt lat="46.65677" lon="6.38688">
        <ele>1189.2880859375</ele>
        <time>2012-01-17T14:58:38Z</time>
      </trkpt>
      <trkpt lat="46.65676" lon="6.38708">
        <ele>1189.7687988281</ele>
        <time>2012-01-17T14:58:43Z</time>
      </trkpt>
      <trkpt lat="46.65674" lon="6.38724">
        <ele>1189.7687988281</ele>
        <time>2012-01-17T14:58:47Z</time>
      </trkpt>
      <trkpt lat="46.65671" lon="6.38751">
        <ele>1190.2495117188</ele>
        <time>2012-01-17T14:58:54Z</time>
      </trkpt>
      <trkpt lat="46.65667" lon="6.38781">
        <ele>1189.7687988281</ele>
        <time>2012-01-17T14:59:02Z</time>
      </trkpt>
      <trkpt lat="46.65662" lon="6.38807">
        <ele>1188.8076171875</ele>
        <time>2012-01-17T14:59:09Z</time>
      </trkpt>
      <trkpt lat="46.65658" lon="6.3883">
        <ele>1188.3269042969</ele>
        <time>2012-01-17T14:59:15Z</time>
      </trkpt>
      <trkpt lat="46.65655" lon="6.3885">
        <ele>1187.8461914062</ele>
        <time>2012-01-17T14:59:20Z</time>
      </trkpt>
      <trkpt lat="46.65656" lon="6.38874">
        <ele>1187.3654785156</ele>
        <time>2012-01-17T14:59:26Z</time>
      </trkpt>
      <trkpt lat="46.65658" lon="6.38902">
        <ele>1188.3269042969</ele>
        <time>2012-01-17T14:59:33Z</time>
      </trkpt>
      <trkpt lat="46.65659" lon="6.38922">
        <ele>1188.3269042969</ele>
        <time>2012-01-17T14:59:38Z</time>
      </trkpt>
      <trkpt lat="46.65657" lon="6.38937">
        <ele>1188.3269042969</ele>
        <time>2012-01-17T14:59:42Z</time>
      </trkpt>
      <trkpt lat="46.65656" lon="6.38953">
        <ele>1187.8461914062</ele>
        <time>2012-01-17T14:59:46Z</time>
      </trkpt>
      <trkpt lat="46.65652" lon="6.38972">
        <ele>1187.3654785156</ele>
        <time>2012-01-17T14:59:51Z</time>
      </trkpt>
      <trkpt lat="46.65652" lon="6.38991">
        <ele>1187.8461914062</ele>
        <time>2012-01-17T14:59:56Z</time>
      </trkpt>
      <trkpt lat="46.65652" lon="6.38995">
        <ele>1187.8461914062</ele>
        <time>2012-01-17T14:59:57Z</time>
      </trkpt>
      <trkpt lat="46.65654" lon="6.39013">
        <ele>1188.8076171875</ele>
        <time>2012-01-17T15:00:02Z</time>
      </trkpt>
      <trkpt lat="46.65661" lon="6.39037">
        <ele>1190.2495117188</ele>
        <time>2012-01-17T15:00:08Z</time>
      </trkpt>
      <trkpt lat="46.65665" lon="6.39056">
        <ele>1191.69140625</ele>
        <time>2012-01-17T15:00:13Z</time>
      </trkpt>
      <trkpt lat="46.65666" lon="6.39067">
        <ele>1192.1721191406</ele>
        <time>2012-01-17T15:00:16Z</time>
      </trkpt>
      <trkpt lat="46.65671" lon="6.39099">
        <ele>1191.2106933594</ele>
        <time>2012-01-17T15:00:24Z</time>
      </trkpt>
      <trkpt lat="46.65675" lon="6.39121">
        <ele>1189.7687988281</ele>
        <time>2012-01-17T15:00:30Z</time>
      </trkpt>
      <trkpt lat="46.65681" lon="6.39142">
        <ele>1188.8076171875</ele>
        <time>2012-01-17T15:00:36Z</time>
      </trkpt>
      <trkpt lat="46.65689" lon="6.39165">
        <ele>1188.3269042969</ele>
        <time>2012-01-17T15:00:43Z</time>
      </trkpt>
      <trkpt lat="46.65696" lon="6.39187">
        <ele>1187.8461914062</ele>
        <time>2012-01-17T15:00:49Z</time>
      </trkpt>
      <trkpt lat="46.65703" lon="6.39209">
        <ele>1187.8461914062</ele>
        <time>2012-01-17T15:00:55Z</time>
      </trkpt>
      <trkpt lat="46.65709" lon="6.39225">
        <ele>1188.8076171875</ele>
        <time>2012-01-17T15:01:00Z</time>
      </trkpt>
      <trkpt lat="46.65714" lon="6.39244">
        <ele>1188.3269042969</ele>
        <time>2012-01-17T15:01:05Z</time>
      </trkpt>
      <trkpt lat="46.65719" lon="6.39269">
        <ele>1188.3269042969</ele>
        <time>2012-01-17T15:01:11Z</time>
      </trkpt>
      <trkpt lat="46.65726" lon="6.39294">
        <ele>1187.8461914062</ele>
        <time>2012-01-17T15:01:18Z</time>
      </trkpt>
      <trkpt lat="46.65731" lon="6.39309">
        <ele>1187.3654785156</ele>
        <time>2012-01-17T15:01:23Z</time>
      </trkpt>
      <trkpt lat="46.65735" lon="6.39319">
        <ele>1187.8461914062</ele>
        <time>2012-01-17T15:01:26Z</time>
      </trkpt>
      <trkpt lat="46.65745" lon="6.39339">
        <ele>1190.7299804688</ele>
        <time>2012-01-17T15:01:32Z</time>
      </trkpt>
      <trkpt lat="46.65747" lon="6.39341">
        <ele>1190.7299804688</ele>
        <time>2012-01-17T15:01:33Z</time>
      </trkpt>
      <trkpt lat="46.65755" lon="6.39356">
        <ele>1192.6528320312</ele>
        <time>2012-01-17T15:01:38Z</time>
      </trkpt>
      <trkpt lat="46.65764" lon="6.39371">
        <ele>1191.69140625</ele>
        <time>2012-01-17T15:01:43Z</time>
      </trkpt>
      <trkpt lat="46.65775" lon="6.39392">
        <ele>1191.69140625</ele>
        <time>2012-01-17T15:01:50Z</time>
      </trkpt>
      <trkpt lat="46.65784" lon="6.39407">
        <ele>1192.1721191406</ele>
        <time>2012-01-17T15:01:55Z</time>
      </trkpt>
      <trkpt lat="46.65791" lon="6.39419">
        <ele>1193.1333007812</ele>
        <time>2012-01-17T15:01:59Z</time>
      </trkpt>
      <trkpt lat="46.65801" lon="6.39436">
        <ele>1193.1333007812</ele>
        <time>2012-01-17T15:02:05Z</time>
      </trkpt>
      <trkpt lat="46.65805" lon="6.39442">
        <ele>1193.1333007812</ele>
        <time>2012-01-17T15:02:07Z</time>
      </trkpt>
      <trkpt lat="46.6581" lon="6.39452">
        <ele>1194.0947265625</ele>
        <time>2012-01-17T15:02:11Z</time>
      </trkpt>
      <trkpt lat="46.65822" lon="6.39455">
        <ele>1193.6140136719</ele>
        <time>2012-01-17T15:02:17Z</time>
      </trkpt>
      <trkpt lat="46.65841" lon="6.39461">
        <ele>1193.6140136719</ele>
        <time>2012-01-17T15:02:25Z</time>
      </trkpt>
      <trkpt lat="46.65852" lon="6.39465">
        <ele>1194.5751953125</ele>
        <time>2012-01-17T15:02:30Z</time>
      </trkpt>
      <trkpt lat="46.65865" lon="6.39473">
        <ele>1196.017578125</ele>
        <time>2012-01-17T15:02:36Z</time>
      </trkpt>
      <trkpt lat="46.65878" lon="6.39479">
        <ele>1198.4206542969</ele>
        <time>2012-01-17T15:02:42Z</time>
      </trkpt>
      <trkpt lat="46.65891" lon="6.39481">
        <ele>1198.9013671875</ele>
        <time>2012-01-17T15:02:47Z</time>
      </trkpt>
      <trkpt lat="46.659" lon="6.39482">
        <ele>1199.3820800781</ele>
        <time>2012-01-17T15:02:51Z</time>
      </trkpt>
      <trkpt lat="46.65914" lon="6.39486">
        <ele>1199.8627929688</ele>
        <time>2012-01-17T15:02:57Z</time>
      </trkpt>
      <trkpt lat="46.65928" lon="6.39489">
        <ele>1199.8627929688</ele>
        <time>2012-01-17T15:03:03Z</time>
      </trkpt>
      <trkpt lat="46.65941" lon="6.39491">
        <ele>1200.8239746094</ele>
        <time>2012-01-17T15:03:09Z</time>
      </trkpt>
      <trkpt lat="46.65958" lon="6.39491">
        <ele>1200.8239746094</ele>
        <time>2012-01-17T15:03:16Z</time>
      </trkpt>
      <trkpt lat="46.65973" lon="6.3949">
        <ele>1200.3435058594</ele>
        <time>2012-01-17T15:03:22Z</time>
      </trkpt>
      <trkpt lat="46.65984" lon="6.39493">
        <ele>1200.8239746094</ele>
        <time>2012-01-17T15:03:27Z</time>
      </trkpt>
      <trkpt lat="46.65996" lon="6.39501">
        <ele>1200.8239746094</ele>
        <time>2012-01-17T15:03:32Z</time>
      </trkpt>
      <trkpt lat="46.66008" lon="6.39512">
        <ele>1199.3820800781</ele>
        <time>2012-01-17T15:03:38Z</time>
      </trkpt>
      <trkpt lat="46.66019" lon="6.39527">
        <ele>1197.9401855469</ele>
        <time>2012-01-17T15:03:43Z</time>
      </trkpt>
      <trkpt lat="46.66028" lon="6.39537">
        <ele>1196.9787597656</ele>
        <time>2012-01-17T15:03:47Z</time>
      </trkpt>
      <trkpt lat="46.66036" lon="6.39546">
        <ele>1196.017578125</ele>
        <time>2012-01-17T15:03:51Z</time>
      </trkpt>
      <trkpt lat="46.66052" lon="6.39558">
        <ele>1195.5366210938</ele>
        <time>2012-01-17T15:03:58Z</time>
      </trkpt>
      <trkpt lat="46.66068" lon="6.39561">
        <ele>1196.017578125</ele>
        <time>2012-01-17T15:04:04Z</time>
      </trkpt>
      <trkpt lat="46.6608" lon="6.39561">
        <ele>1195.0559082031</ele>
        <time>2012-01-17T15:04:09Z</time>
      </trkpt>
      <trkpt lat="46.66082" lon="6.39563">
        <ele>1194.5751953125</ele>
        <time>2012-01-17T15:04:10Z</time>
      </trkpt>
      <trkpt lat="46.66084" lon="6.3958">
        <ele>1192.6528320312</ele>
        <time>2012-01-17T15:04:15Z</time>
      </trkpt>
      <trkpt lat="46.66082" lon="6.39583">
        <ele>1192.1721191406</ele>
        <time>2012-01-17T15:04:16Z</time>
      </trkpt>
      <trkpt lat="46.66077" lon="6.39598">
        <ele>1190.2495117188</ele>
        <time>2012-01-17T15:04:21Z</time>
      </trkpt>
      <trkpt lat="46.66085" lon="6.39614">
        <ele>1187.8461914062</ele>
        <time>2012-01-17T15:04:27Z</time>
      </trkpt>
      <trkpt lat="46.66095" lon="6.39628">
        <ele>1186.404296875</ele>
        <time>2012-01-17T15:04:32Z</time>
      </trkpt>
      <trkpt lat="46.66104" lon="6.3965">
        <ele>1184.9624023438</ele>
        <time>2012-01-17T15:04:38Z</time>
      </trkpt>
      <trkpt lat="46.66106" lon="6.39671">
        <ele>1184.0009765625</ele>
        <time>2012-01-17T15:04:43Z</time>
      </trkpt>
      <trkpt lat="46.66108" lon="6.39686">
        <ele>1182.0783691406</ele>
        <time>2012-01-17T15:04:47Z</time>
      </trkpt>
      <trkpt lat="46.66113" lon="6.39706">
        <ele>1179.6748046875</ele>
        <time>2012-01-17T15:04:52Z</time>
      </trkpt>
      <trkpt lat="46.66112" lon="6.39722">
        <ele>1177.7521972656</ele>
        <time>2012-01-17T15:04:56Z</time>
      </trkpt>
      <trkpt lat="46.66113" lon="6.39736">
        <ele>1177.2717285156</ele>
        <time>2012-01-17T15:05:00Z</time>
      </trkpt>
      <trkpt lat="46.66113" lon="6.39754">
        <ele>1174.8684082031</ele>
        <time>2012-01-17T15:05:05Z</time>
      </trkpt>
      <trkpt lat="46.66113" lon="6.39774">
        <ele>1174.8684082031</ele>
        <time>2012-01-17T15:05:10Z</time>
      </trkpt>
      <trkpt lat="46.66111" lon="6.39795">
        <ele>1176.791015625</ele>
        <time>2012-01-17T15:05:15Z</time>
      </trkpt>
      <trkpt lat="46.66106" lon="6.39817">
        <ele>1178.7136230469</ele>
        <time>2012-01-17T15:05:20Z</time>
      </trkpt>
      <trkpt lat="46.66101" lon="6.39838">
        <ele>1179.6748046875</ele>
        <time>2012-01-17T15:05:25Z</time>
      </trkpt>
      <trkpt lat="46.66099" lon="6.39854">
        <ele>1177.7521972656</ele>
        <time>2012-01-17T15:05:29Z</time>
      </trkpt>
      <trkpt lat="46.66099" lon="6.39875">
        <ele>1175.8295898438</ele>
        <time>2012-01-17T15:05:34Z</time>
      </trkpt>
      <trkpt lat="46.66095" lon="6.39898">
        <ele>1173.9069824219</ele>
        <time>2012-01-17T15:05:40Z</time>
      </trkpt>
      <trkpt lat="46.66096" lon="6.3992">
        <ele>1171.984375</ele>
        <time>2012-01-17T15:05:45Z</time>
      </trkpt>
      <trkpt lat="46.66096" lon="6.39944">
        <ele>1171.0231933594</ele>
        <time>2012-01-17T15:05:50Z</time>
      </trkpt>
      <trkpt lat="46.66098" lon="6.39963">
        <ele>1168.6198730469</ele>
        <time>2012-01-17T15:05:55Z</time>
      </trkpt>
      <trkpt lat="46.66098" lon="6.39983">
        <ele>1165.2553710938</ele>
        <time>2012-01-17T15:06:00Z</time>
      </trkpt>
      <trkpt lat="46.66097" lon="6.39995">
        <ele>1163.3325195312</ele>
        <time>2012-01-17T15:06:03Z</time>
      </trkpt>
      <trkpt lat="46.66098" lon="6.40014">
        <ele>1159.9677734375</ele>
        <time>2012-01-17T15:06:08Z</time>
      </trkpt>
      <trkpt lat="46.66101" lon="6.4003">
        <ele>1157.083984375</ele>
        <time>2012-01-17T15:06:12Z</time>
      </trkpt>
      <trkpt lat="46.66095" lon="6.40038">
        <ele>1156.1225585938</ele>
        <time>2012-01-17T15:06:16Z</time>
      </trkpt>
      <trkpt lat="46.66092" lon="6.40032">
        <ele>1154.2001953125</ele>
        <time>2012-01-17T15:06:19Z</time>
      </trkpt>
      <trkpt lat="46.66089" lon="6.40011">
        <ele>1153.2387695312</ele>
        <time>2012-01-17T15:06:25Z</time>
      </trkpt>
      <trkpt lat="46.66087" lon="6.39993">
        <ele>1152.27734375</ele>
        <time>2012-01-17T15:06:30Z</time>
      </trkpt>
      <trkpt lat="46.66082" lon="6.39975">
        <ele>1152.27734375</ele>
        <time>2012-01-17T15:06:36Z</time>
      </trkpt>
      <trkpt lat="46.66079" lon="6.39958">
        <ele>1153.2387695312</ele>
        <time>2012-01-17T15:06:41Z</time>
      </trkpt>
      <trkpt lat="46.66077" lon="6.39944">
        <ele>1154.2001953125</ele>
        <time>2012-01-17T15:06:45Z</time>
      </trkpt>
      <trkpt lat="46.66073" lon="6.39925">
        <ele>1155.1613769531</ele>
        <time>2012-01-17T15:06:50Z</time>
      </trkpt>
      <trkpt lat="46.6607" lon="6.39902">
        <ele>1155.6420898438</ele>
        <time>2012-01-17T15:06:56Z</time>
      </trkpt>
      <trkpt lat="46.66068" lon="6.39879">
        <ele>1156.1225585938</ele>
        <time>2012-01-17T15:07:02Z</time>
      </trkpt>
      <trkpt lat="46.66066" lon="6.3986">
        <ele>1155.1613769531</ele>
        <time>2012-01-17T15:07:07Z</time>
      </trkpt>
      <trkpt lat="46.66066" lon="6.39842">
        <ele>1156.1225585938</ele>
        <time>2012-01-17T15:07:12Z</time>
      </trkpt>
      <trkpt lat="46.66064" lon="6.39826">
        <ele>1155.6420898438</ele>
        <time>2012-01-17T15:07:16Z</time>
      </trkpt>
      <trkpt lat="46.66064" lon="6.3981">
        <ele>1155.6420898438</ele>
        <time>2012-01-17T15:07:21Z</time>
      </trkpt>
      <trkpt lat="46.66064" lon="6.39803">
        <ele>1155.6420898438</ele>
        <time>2012-01-17T15:07:23Z</time>
      </trkpt>
      <trkpt lat="46.66061" lon="6.39785">
        <ele>1155.6420898438</ele>
        <time>2012-01-17T15:07:28Z</time>
      </trkpt>
      <trkpt lat="46.6606" lon="6.39768">
        <ele>1155.6420898438</ele>
        <time>2012-01-17T15:07:33Z</time>
      </trkpt>
      <trkpt lat="46.66058" lon="6.39748">
        <ele>1155.1613769531</ele>
        <time>2012-01-17T15:07:39Z</time>
      </trkpt>
      <trkpt lat="46.66051" lon="6.39738">
        <ele>1157.083984375</ele>
        <time>2012-01-17T15:07:43Z</time>
      </trkpt>
      <trkpt lat="46.66042" lon="6.39734">
        <ele>1158.5258789062</ele>
        <time>2012-01-17T15:07:47Z</time>
      </trkpt>
      <trkpt lat="46.66025" lon="6.39729">
        <ele>1156.1225585938</ele>
        <time>2012-01-17T15:07:54Z</time>
      </trkpt>
      <trkpt lat="46.66016" lon="6.39728">
        <ele>1154.2001953125</ele>
        <time>2012-01-17T15:07:58Z</time>
      </trkpt>
      <trkpt lat="46.65999" lon="6.39733">
        <ele>1157.5646972656</ele>
        <time>2012-01-17T15:08:04Z</time>
      </trkpt>
      <trkpt lat="46.65982" lon="6.39737">
        <ele>1157.5646972656</ele>
        <time>2012-01-17T15:08:10Z</time>
      </trkpt>
      <trkpt lat="46.65968" lon="6.39741">
        <ele>1160.9291992188</ele>
        <time>2012-01-17T15:08:15Z</time>
      </trkpt>
      <trkpt lat="46.65963" lon="6.3974">
        <ele>1159.4873046875</ele>
        <time>2012-01-17T15:08:17Z</time>
      </trkpt>
      <trkpt lat="46.65952" lon="6.3974">
        <ele>1156.1225585938</ele>
        <time>2012-01-17T15:08:22Z</time>
      </trkpt>
      <trkpt lat="46.65949" lon="6.39741">
        <ele>1156.1225585938</ele>
        <time>2012-01-17T15:08:23Z</time>
      </trkpt>
      <trkpt lat="46.65934" lon="6.39742">
        <ele>1153.7194824219</ele>
        <time>2012-01-17T15:08:29Z</time>
      </trkpt>
      <trkpt lat="46.65919" lon="6.39744">
        <ele>1150.3549804688</ele>
        <time>2012-01-17T15:08:35Z</time>
      </trkpt>
      <trkpt lat="46.65908" lon="6.39745">
        <ele>1148.4321289062</ele>
        <time>2012-01-17T15:08:40Z</time>
      </trkpt>
      <trkpt lat="46.65892" lon="6.3975">
        <ele>1149.3935546875</ele>
        <time>2012-01-17T15:08:46Z</time>
      </trkpt>
      <trkpt lat="46.65879" lon="6.39754">
        <ele>1150.8354492188</ele>
        <time>2012-01-17T15:08:51Z</time>
      </trkpt>
      <trkpt lat="46.65866" lon="6.3975">
        <ele>1148.4321289062</ele>
        <time>2012-01-17T15:08:56Z</time>
      </trkpt>
      <trkpt lat="46.6585" lon="6.39745">
        <ele>1145.0673828125</ele>
        <time>2012-01-17T15:09:03Z</time>
      </trkpt>
      <trkpt lat="46.65836" lon="6.39738">
        <ele>1142.6643066406</ele>
        <time>2012-01-17T15:09:09Z</time>
      </trkpt>
      <trkpt lat="46.65823" lon="6.39732">
        <ele>1140.2609863281</ele>
        <time>2012-01-17T15:09:14Z</time>
      </trkpt>
      <trkpt lat="46.65814" lon="6.39728">
        <ele>1140.7414550781</ele>
        <time>2012-01-17T15:09:17Z</time>
      </trkpt>
      <trkpt lat="46.658" lon="6.39726">
        <ele>1143.1447753906</ele>
        <time>2012-01-17T15:09:22Z</time>
      </trkpt>
      <trkpt lat="46.65797" lon="6.39725">
        <ele>1144.1062011719</ele>
        <time>2012-01-17T15:09:23Z</time>
      </trkpt>
      <trkpt lat="46.65778" lon="6.39719">
        <ele>1145.0673828125</ele>
        <time>2012-01-17T15:09:30Z</time>
      </trkpt>
      <trkpt lat="46.65766" lon="6.3971">
        <ele>1143.1447753906</ele>
        <time>2012-01-17T15:09:35Z</time>
      </trkpt>
      <trkpt lat="46.65751" lon="6.39702">
        <ele>1140.7414550781</ele>
        <time>2012-01-17T15:09:41Z</time>
      </trkpt>
      <trkpt lat="46.65738" lon="6.39696">
        <ele>1138.8190917969</ele>
        <time>2012-01-17T15:09:46Z</time>
      </trkpt>
      <trkpt lat="46.65726" lon="6.39693">
        <ele>1137.8576660156</ele>
        <time>2012-01-17T15:09:50Z</time>
      </trkpt>
      <trkpt lat="46.65715" lon="6.39688">
        <ele>1135.9350585938</ele>
        <time>2012-01-17T15:09:54Z</time>
      </trkpt>
      <trkpt lat="46.65704" lon="6.39684">
        <ele>1134.4931640625</ele>
        <time>2012-01-17T15:09:58Z</time>
      </trkpt>
      <trkpt lat="46.65694" lon="6.39679">
        <ele>1133.0510253906</ele>
        <time>2012-01-17T15:10:02Z</time>
      </trkpt>
      <trkpt lat="46.65681" lon="6.39673">
        <ele>1131.1284179688</ele>
        <time>2012-01-17T15:10:07Z</time>
      </trkpt>
      <trkpt lat="46.65669" lon="6.39669">
        <ele>1130.6477050781</ele>
        <time>2012-01-17T15:10:12Z</time>
      </trkpt>
      <trkpt lat="46.65657" lon="6.39661">
        <ele>1129.6862792969</ele>
        <time>2012-01-17T15:10:17Z</time>
      </trkpt>
      <trkpt lat="46.65644" lon="6.39653">
        <ele>1131.6088867188</ele>
        <time>2012-01-17T15:10:22Z</time>
      </trkpt>
      <trkpt lat="46.6563" lon="6.3964">
        <ele>1133.5317382812</ele>
        <time>2012-01-17T15:10:28Z</time>
      </trkpt>
      <trkpt lat="46.65619" lon="6.39628">
        <ele>1133.5317382812</ele>
        <time>2012-01-17T15:10:33Z</time>
      </trkpt>
      <trkpt lat="46.65607" lon="6.39616">
        <ele>1134.0124511719</ele>
        <time>2012-01-17T15:10:38Z</time>
      </trkpt>
      <trkpt lat="46.65598" lon="6.39609">
        <ele>1134.4931640625</ele>
        <time>2012-01-17T15:10:42Z</time>
      </trkpt>
      <trkpt lat="46.65585" lon="6.396">
        <ele>1136.8962402344</ele>
        <time>2012-01-17T15:10:47Z</time>
      </trkpt>
      <trkpt lat="46.65573" lon="6.3959">
        <ele>1138.8190917969</ele>
        <time>2012-01-17T15:10:53Z</time>
      </trkpt>
      <trkpt lat="46.65563" lon="6.39582">
        <ele>1140.7414550781</ele>
        <time>2012-01-17T15:10:58Z</time>
      </trkpt>
      <trkpt lat="46.65554" lon="6.39568">
        <ele>1139.2995605469</ele>
        <time>2012-01-17T15:11:04Z</time>
      </trkpt>
      <trkpt lat="46.65541" lon="6.39552">
        <ele>1137.8576660156</ele>
        <time>2012-01-17T15:11:11Z</time>
      </trkpt>
      <trkpt lat="46.6553" lon="6.39538">
        <ele>1136.8962402344</ele>
        <time>2012-01-17T15:11:17Z</time>
      </trkpt>
      <trkpt lat="46.65522" lon="6.39529">
        <ele>1137.8576660156</ele>
        <time>2012-01-17T15:11:21Z</time>
      </trkpt>
      <trkpt lat="46.65512" lon="6.39515">
        <ele>1139.7802734375</ele>
        <time>2012-01-17T15:11:27Z</time>
      </trkpt>
      <trkpt lat="46.65503" lon="6.39499">
        <ele>1141.7028808594</ele>
        <time>2012-01-17T15:11:33Z</time>
      </trkpt>
      <trkpt lat="46.65496" lon="6.39486">
        <ele>1143.1447753906</ele>
        <time>2012-01-17T15:11:38Z</time>
      </trkpt>
      <trkpt lat="46.65489" lon="6.39474">
        <ele>1144.5866699219</ele>
        <time>2012-01-17T15:11:42Z</time>
      </trkpt>
      <trkpt lat="46.65482" lon="6.39462">
        <ele>1145.5480957031</ele>
        <time>2012-01-17T15:11:46Z</time>
      </trkpt>
      <trkpt lat="46.65472" lon="6.39448">
        <ele>1146.5095214844</ele>
        <time>2012-01-17T15:11:52Z</time>
      </trkpt>
      <trkpt lat="46.65462" lon="6.39429">
        <ele>1147.9514160156</ele>
        <time>2012-01-17T15:11:59Z</time>
      </trkpt>
      <trkpt lat="46.65455" lon="6.39409">
        <ele>1149.3935546875</ele>
        <time>2012-01-17T15:12:06Z</time>
      </trkpt>
      <trkpt lat="46.65449" lon="6.39391">
        <ele>1151.3161621094</ele>
        <time>2012-01-17T15:12:12Z</time>
      </trkpt>
      <trkpt lat="46.65445" lon="6.39378">
        <ele>1152.27734375</ele>
        <time>2012-01-17T15:12:16Z</time>
      </trkpt>
      <trkpt lat="46.65442" lon="6.39365">
        <ele>1153.2387695312</ele>
        <time>2012-01-17T15:12:20Z</time>
      </trkpt>
      <trkpt lat="46.65435" lon="6.39339">
        <ele>1155.1613769531</ele>
        <time>2012-01-17T15:12:28Z</time>
      </trkpt>
      <trkpt lat="46.6543" lon="6.39323">
        <ele>1155.6420898438</ele>
        <time>2012-01-17T15:12:33Z</time>
      </trkpt>
      <trkpt lat="46.65424" lon="6.39303">
        <ele>1157.083984375</ele>
        <time>2012-01-17T15:12:39Z</time>
      </trkpt>
      <trkpt lat="46.65422" lon="6.39293">
        <ele>1158.0454101562</ele>
        <time>2012-01-17T15:12:42Z</time>
      </trkpt>
      <trkpt lat="46.65419" lon="6.3928">
        <ele>1159.0065917969</ele>
        <time>2012-01-17T15:12:46Z</time>
      </trkpt>
      <trkpt lat="46.65414" lon="6.39263">
        <ele>1160.4484863281</ele>
        <time>2012-01-17T15:12:51Z</time>
      </trkpt>
      <trkpt lat="46.65409" lon="6.39244">
        <ele>1161.4099121094</ele>
        <time>2012-01-17T15:12:57Z</time>
      </trkpt>
      <trkpt lat="46.65406" lon="6.39229">
        <ele>1160.4484863281</ele>
        <time>2012-01-17T15:13:01Z</time>
      </trkpt>
      <trkpt lat="46.65403" lon="6.39207">
        <ele>1159.4873046875</ele>
        <time>2012-01-17T15:13:07Z</time>
      </trkpt>
      <trkpt lat="46.65401" lon="6.39188">
        <ele>1158.5258789062</ele>
        <time>2012-01-17T15:13:12Z</time>
      </trkpt>
      <trkpt lat="46.65401" lon="6.39172">
        <ele>1158.0454101562</ele>
        <time>2012-01-17T15:13:16Z</time>
      </trkpt>
      <trkpt lat="46.65399" lon="6.3915">
        <ele>1158.0454101562</ele>
        <time>2012-01-17T15:13:22Z</time>
      </trkpt>
      <trkpt lat="46.65397" lon="6.39132">
        <ele>1158.5258789062</ele>
        <time>2012-01-17T15:13:27Z</time>
      </trkpt>
      <trkpt lat="46.65395" lon="6.39113">
        <ele>1159.4873046875</ele>
        <time>2012-01-17T15:13:32Z</time>
      </trkpt>
      <trkpt lat="46.65395" lon="6.39087">
        <ele>1159.9677734375</ele>
        <time>2012-01-17T15:13:39Z</time>
      </trkpt>
      <trkpt lat="46.65395" lon="6.39067">
        <ele>1159.0065917969</ele>
        <time>2012-01-17T15:13:44Z</time>
      </trkpt>
      <trkpt lat="46.65396" lon="6.39053">
        <ele>1158.5258789062</ele>
        <time>2012-01-17T15:13:48Z</time>
      </trkpt>
      <trkpt lat="46.65399" lon="6.39035">
        <ele>1157.5646972656</ele>
        <time>2012-01-17T15:13:53Z</time>
      </trkpt>
      <trkpt lat="46.65401" lon="6.39021">
        <ele>1156.6032714844</ele>
        <time>2012-01-17T15:13:57Z</time>
      </trkpt>
      <trkpt lat="46.65402" lon="6.39001">
        <ele>1157.083984375</ele>
        <time>2012-01-17T15:14:02Z</time>
      </trkpt>
      <trkpt lat="46.65405" lon="6.38974">
        <ele>1158.0454101562</ele>
        <time>2012-01-17T15:14:09Z</time>
      </trkpt>
      <trkpt lat="46.65408" lon="6.38953">
        <ele>1158.0454101562</ele>
        <time>2012-01-17T15:14:15Z</time>
      </trkpt>
      <trkpt lat="46.6541" lon="6.38934">
        <ele>1158.0454101562</ele>
        <time>2012-01-17T15:14:20Z</time>
      </trkpt>
      <trkpt lat="46.65413" lon="6.38913">
        <ele>1158.0454101562</ele>
        <time>2012-01-17T15:14:26Z</time>
      </trkpt>
      <trkpt lat="46.65416" lon="6.3889">
        <ele>1159.0065917969</ele>
        <time>2012-01-17T15:14:33Z</time>
      </trkpt>
      <trkpt lat="46.65416" lon="6.38871">
        <ele>1159.9677734375</ele>
        <time>2012-01-17T15:14:38Z</time>
      </trkpt>
      <trkpt lat="46.65417" lon="6.38868">
        <ele>1159.9677734375</ele>
        <time>2012-01-17T15:14:39Z</time>
      </trkpt>
      <trkpt lat="46.65416" lon="6.38849">
        <ele>1160.4484863281</ele>
        <time>2012-01-17T15:14:44Z</time>
      </trkpt>
      <trkpt lat="46.6542" lon="6.38829">
        <ele>1162.37109375</ele>
        <time>2012-01-17T15:14:50Z</time>
      </trkpt>
      <trkpt lat="46.65421" lon="6.38811">
        <ele>1162.8518066406</ele>
        <time>2012-01-17T15:14:55Z</time>
      </trkpt>
      <trkpt lat="46.65417" lon="6.38795">
        <ele>1163.3325195312</ele>
        <time>2012-01-17T15:15:00Z</time>
      </trkpt>
      <trkpt lat="46.65413" lon="6.38776">
        <ele>1162.37109375</ele>
        <time>2012-01-17T15:15:06Z</time>
      </trkpt>
      <trkpt lat="46.65403" lon="6.38756">
        <ele>1161.890625</ele>
        <time>2012-01-17T15:15:13Z</time>
      </trkpt>
      <trkpt lat="46.65392" lon="6.38745">
        <ele>1160.4484863281</ele>
        <time>2012-01-17T15:15:19Z</time>
      </trkpt>
      <trkpt lat="46.65377" lon="6.38739">
        <ele>1160.4484863281</ele>
        <time>2012-01-17T15:15:25Z</time>
      </trkpt>
      <trkpt lat="46.65369" lon="6.38733">
        <ele>1159.9677734375</ele>
        <time>2012-01-17T15:15:29Z</time>
      </trkpt>
      <trkpt lat="46.65358" lon="6.38715">
        <ele>1159.4873046875</ele>
        <time>2012-01-17T15:15:36Z</time>
      </trkpt>
      <trkpt lat="46.65348" lon="6.38693">
        <ele>1159.4873046875</ele>
        <time>2012-01-17T15:15:43Z</time>
      </trkpt>
      <trkpt lat="46.65344" lon="6.38676">
        <ele>1159.0065917969</ele>
        <time>2012-01-17T15:15:48Z</time>
      </trkpt>
      <trkpt lat="46.65339" lon="6.38649">
        <ele>1159.4873046875</ele>
        <time>2012-01-17T15:15:56Z</time>
      </trkpt>
      <trkpt lat="46.65333" lon="6.38625">
        <ele>1161.890625</ele>
        <time>2012-01-17T15:16:03Z</time>
      </trkpt>
      <trkpt lat="46.65328" lon="6.38605">
        <ele>1162.8518066406</ele>
        <time>2012-01-17T15:16:09Z</time>
      </trkpt>
      <trkpt lat="46.65323" lon="6.38584">
        <ele>1164.2939453125</ele>
        <time>2012-01-17T15:16:15Z</time>
      </trkpt>
      <trkpt lat="46.65317" lon="6.38562">
        <ele>1165.2553710938</ele>
        <time>2012-01-17T15:16:21Z</time>
      </trkpt>
      <trkpt lat="46.65312" lon="6.38541">
        <ele>1165.7360839844</ele>
        <time>2012-01-17T15:16:27Z</time>
      </trkpt>
      <trkpt lat="46.65308" lon="6.38523">
        <ele>1165.7360839844</ele>
        <time>2012-01-17T15:16:32Z</time>
      </trkpt>
      <trkpt lat="46.65305" lon="6.38504">
        <ele>1166.697265625</ele>
        <time>2012-01-17T15:16:37Z</time>
      </trkpt>
      <trkpt lat="46.653" lon="6.38479">
        <ele>1166.697265625</ele>
        <time>2012-01-17T15:16:44Z</time>
      </trkpt>
      <trkpt lat="46.65291" lon="6.38458">
        <ele>1166.697265625</ele>
        <time>2012-01-17T15:16:51Z</time>
      </trkpt>
      <trkpt lat="46.65277" lon="6.38437">
        <ele>1166.697265625</ele>
        <time>2012-01-17T15:16:59Z</time>
      </trkpt>
      <trkpt lat="46.65269" lon="6.38425">
        <ele>1166.2165527344</ele>
        <time>2012-01-17T15:17:04Z</time>
      </trkpt>
      <trkpt lat="46.65261" lon="6.3841">
        <ele>1168.6198730469</ele>
        <time>2012-01-17T15:17:10Z</time>
      </trkpt>
      <trkpt lat="46.65253" lon="6.38391">
        <ele>1170.0617675781</ele>
        <time>2012-01-17T15:17:16Z</time>
      </trkpt>
      <trkpt lat="46.65246" lon="6.38376">
        <ele>1170.5424804688</ele>
        <time>2012-01-17T15:17:21Z</time>
      </trkpt>
      <trkpt lat="46.65239" lon="6.38358">
        <ele>1168.6198730469</ele>
        <time>2012-01-17T15:17:27Z</time>
      </trkpt>
      <trkpt lat="46.65232" lon="6.38338">
        <ele>1168.1391601562</ele>
        <time>2012-01-17T15:17:33Z</time>
      </trkpt>
      <trkpt lat="46.65228" lon="6.38325">
        <ele>1168.1391601562</ele>
        <time>2012-01-17T15:17:37Z</time>
      </trkpt>
      <trkpt lat="46.65225" lon="6.38312">
        <ele>1169.1005859375</ele>
        <time>2012-01-17T15:17:41Z</time>
      </trkpt>
      <trkpt lat="46.65222" lon="6.38294">
        <ele>1169.5812988281</ele>
        <time>2012-01-17T15:17:46Z</time>
      </trkpt>
      <trkpt lat="46.65219" lon="6.38272">
        <ele>1169.1005859375</ele>
        <time>2012-01-17T15:17:52Z</time>
      </trkpt>
      <trkpt lat="46.65215" lon="6.38256">
        <ele>1170.0617675781</ele>
        <time>2012-01-17T15:17:57Z</time>
      </trkpt>
      <trkpt lat="46.6521" lon="6.38243">
        <ele>1171.0231933594</ele>
        <time>2012-01-17T15:18:01Z</time>
      </trkpt>
      <trkpt lat="46.65203" lon="6.38229">
        <ele>1171.5036621094</ele>
        <time>2012-01-17T15:18:05Z</time>
      </trkpt>
      <trkpt lat="46.65192" lon="6.3821">
        <ele>1171.0231933594</ele>
        <time>2012-01-17T15:18:11Z</time>
      </trkpt>
      <trkpt lat="46.65181" lon="6.38192">
        <ele>1172.4650878906</ele>
        <time>2012-01-17T15:18:17Z</time>
      </trkpt>
      <trkpt lat="46.65176" lon="6.38179">
        <ele>1171.5036621094</ele>
        <time>2012-01-17T15:18:21Z</time>
      </trkpt>
      <trkpt lat="46.65168" lon="6.38162">
        <ele>1169.1005859375</ele>
        <time>2012-01-17T15:18:26Z</time>
      </trkpt>
      <trkpt lat="46.6516" lon="6.38152">
        <ele>1169.5812988281</ele>
        <time>2012-01-17T15:18:30Z</time>
      </trkpt>
      <trkpt lat="46.65152" lon="6.38141">
        <ele>1169.1005859375</ele>
        <time>2012-01-17T15:18:34Z</time>
      </trkpt>
      <trkpt lat="46.6514" lon="6.38133">
        <ele>1168.6198730469</ele>
        <time>2012-01-17T15:18:39Z</time>
      </trkpt>
      <trkpt lat="46.65123" lon="6.38121">
        <ele>1166.697265625</ele>
        <time>2012-01-17T15:18:46Z</time>
      </trkpt>
      <trkpt lat="46.65114" lon="6.38114">
        <ele>1165.7360839844</ele>
        <time>2012-01-17T15:18:50Z</time>
      </trkpt>
      <trkpt lat="46.65103" lon="6.38106">
        <ele>1165.2553710938</ele>
        <time>2012-01-17T15:18:55Z</time>
      </trkpt>
      <trkpt lat="46.65093" lon="6.38096">
        <ele>1164.7746582031</ele>
        <time>2012-01-17T15:19:00Z</time>
      </trkpt>
      <trkpt lat="46.65084" lon="6.3809">
        <ele>1163.8129882812</ele>
        <time>2012-01-17T15:19:04Z</time>
      </trkpt>
      <trkpt lat="46.6507" lon="6.38082">
        <ele>1162.8518066406</ele>
        <time>2012-01-17T15:19:10Z</time>
      </trkpt>
      <trkpt lat="46.65056" lon="6.38073">
        <ele>1160.9291992188</ele>
        <time>2012-01-17T15:19:16Z</time>
      </trkpt>
      <trkpt lat="46.65041" lon="6.38065">
        <ele>1159.4873046875</ele>
        <time>2012-01-17T15:19:22Z</time>
      </trkpt>
      <trkpt lat="46.65031" lon="6.3806">
        <ele>1158.5258789062</ele>
        <time>2012-01-17T15:19:26Z</time>
      </trkpt>
      <trkpt lat="46.65016" lon="6.38061">
        <ele>1157.5646972656</ele>
        <time>2012-01-17T15:19:32Z</time>
      </trkpt>
      <trkpt lat="46.65003" lon="6.38056">
        <ele>1157.5646972656</ele>
        <time>2012-01-17T15:19:37Z</time>
      </trkpt>
      <trkpt lat="46.64997" lon="6.38054">
        <ele>1158.5258789062</ele>
        <time>2012-01-17T15:19:39Z</time>
      </trkpt>
      <trkpt lat="46.64975" lon="6.38058">
        <ele>1160.4484863281</ele>
        <time>2012-01-17T15:19:47Z</time>
      </trkpt>
      <trkpt lat="46.64964" lon="6.38066">
        <ele>1159.9677734375</ele>
        <time>2012-01-17T15:19:52Z</time>
      </trkpt>
      <trkpt lat="46.64952" lon="6.38074">
        <ele>1159.4873046875</ele>
        <time>2012-01-17T15:19:57Z</time>
      </trkpt>
      <trkpt lat="46.64936" lon="6.38072">
        <ele>1158.0454101562</ele>
        <time>2012-01-17T15:20:03Z</time>
      </trkpt>
      <trkpt lat="46.64932" lon="6.38066">
        <ele>1158.0454101562</ele>
        <time>2012-01-17T15:20:05Z</time>
      </trkpt>
      <trkpt lat="46.64927" lon="6.38054">
        <ele>1158.5258789062</ele>
        <time>2012-01-17T15:20:09Z</time>
      </trkpt>
      <trkpt lat="46.64919" lon="6.38025">
        <ele>1156.1225585938</ele>
        <time>2012-01-17T15:20:17Z</time>
      </trkpt>
      <trkpt lat="46.64908" lon="6.38012">
        <ele>1154.6806640625</ele>
        <time>2012-01-17T15:20:23Z</time>
      </trkpt>
      <trkpt lat="46.64894" lon="6.38007">
        <ele>1154.2001953125</ele>
        <time>2012-01-17T15:20:28Z</time>
      </trkpt>
      <trkpt lat="46.64881" lon="6.38007">
        <ele>1154.6806640625</ele>
        <time>2012-01-17T15:20:33Z</time>
      </trkpt>
      <trkpt lat="46.64867" lon="6.38012">
        <ele>1155.1613769531</ele>
        <time>2012-01-17T15:20:38Z</time>
      </trkpt>
      <trkpt lat="46.64855" lon="6.38008">
        <ele>1153.2387695312</ele>
        <time>2012-01-17T15:20:43Z</time>
      </trkpt>
      <trkpt lat="46.64842" lon="6.37997">
        <ele>1152.7580566406</ele>
        <time>2012-01-17T15:20:48Z</time>
      </trkpt>
      <trkpt lat="46.64832" lon="6.37979">
        <ele>1152.27734375</ele>
        <time>2012-01-17T15:20:54Z</time>
      </trkpt>
      <trkpt lat="46.64825" lon="6.37966">
        <ele>1151.3161621094</ele>
        <time>2012-01-17T15:20:58Z</time>
      </trkpt>
      <trkpt lat="46.64822" lon="6.37956">
        <ele>1150.3549804688</ele>
        <time>2012-01-17T15:21:01Z</time>
      </trkpt>
      <trkpt lat="46.64827" lon="6.37935">
        <ele>1148.4321289062</ele>
        <time>2012-01-17T15:21:07Z</time>
      </trkpt>
      <trkpt lat="46.64828" lon="6.37932">
        <ele>1148.4321289062</ele>
        <time>2012-01-17T15:21:08Z</time>
      </trkpt>
      <trkpt lat="46.64835" lon="6.37921">
        <ele>1146.5095214844</ele>
        <time>2012-01-17T15:21:14Z</time>
      </trkpt>
      <trkpt lat="46.64843" lon="6.37913">
        <ele>1145.0673828125</ele>
        <time>2012-01-17T15:21:19Z</time>
      </trkpt>
      <trkpt lat="46.64846" lon="6.37909">
        <ele>1145.0673828125</ele>
        <time>2012-01-17T15:21:21Z</time>
      </trkpt>
      <trkpt lat="46.64851" lon="6.37901">
        <ele>1145.5480957031</ele>
        <time>2012-01-17T15:21:25Z</time>
      </trkpt>
      <trkpt lat="46.64856" lon="6.37895">
        <ele>1146.0288085938</ele>
        <time>2012-01-17T15:21:28Z</time>
      </trkpt>
      <trkpt lat="46.64861" lon="6.37883">
        <ele>1147.470703125</ele>
        <time>2012-01-17T15:21:33Z</time>
      </trkpt>
      <trkpt lat="46.64869" lon="6.37867">
        <ele>1148.9128417969</ele>
        <time>2012-01-17T15:21:39Z</time>
      </trkpt>
      <trkpt lat="46.64875" lon="6.37849">
        <ele>1150.3549804688</ele>
        <time>2012-01-17T15:21:45Z</time>
      </trkpt>
      <trkpt lat="46.64877" lon="6.37837">
        <ele>1152.27734375</ele>
        <time>2012-01-17T15:21:49Z</time>
      </trkpt>
      <trkpt lat="46.64877" lon="6.37826">
        <ele>1155.1613769531</ele>
        <time>2012-01-17T15:21:53Z</time>
      </trkpt>
      <trkpt lat="46.64877" lon="6.37815">
        <ele>1159.0065917969</ele>
        <time>2012-01-17T15:21:57Z</time>
      </trkpt>
      <trkpt lat="46.64878" lon="6.37802">
        <ele>1160.9291992188</ele>
        <time>2012-01-17T15:22:02Z</time>
      </trkpt>
      <trkpt lat="46.64881" lon="6.37791">
        <ele>1161.4099121094</ele>
        <time>2012-01-17T15:22:06Z</time>
      </trkpt>
      <trkpt lat="46.64882" lon="6.37785">
        <ele>1161.890625</ele>
        <time>2012-01-17T15:22:08Z</time>
      </trkpt>
      <trkpt lat="46.64885" lon="6.37767">
        <ele>1161.4099121094</ele>
        <time>2012-01-17T15:22:14Z</time>
      </trkpt>
      <trkpt lat="46.64887" lon="6.37756">
        <ele>1161.4099121094</ele>
        <time>2012-01-17T15:22:18Z</time>
      </trkpt>
      <trkpt lat="46.6489" lon="6.37748">
        <ele>1160.9291992188</ele>
        <time>2012-01-17T15:22:21Z</time>
      </trkpt>
      <trkpt lat="46.64894" lon="6.37737">
        <ele>1161.890625</ele>
        <time>2012-01-17T15:22:26Z</time>
      </trkpt>
      <trkpt lat="46.64901" lon="6.37728">
        <ele>1163.3325195312</ele>
        <time>2012-01-17T15:22:31Z</time>
      </trkpt>
      <trkpt lat="46.64911" lon="6.37722">
        <ele>1164.7746582031</ele>
        <time>2012-01-17T15:22:36Z</time>
      </trkpt>
      <trkpt lat="46.6492" lon="6.37717">
        <ele>1165.2553710938</ele>
        <time>2012-01-17T15:22:41Z</time>
      </trkpt>
      <trkpt lat="46.64923" lon="6.37713">
        <ele>1166.697265625</ele>
        <time>2012-01-17T15:22:43Z</time>
      </trkpt>
      <trkpt lat="46.64932" lon="6.37706">
        <ele>1167.6584472656</ele>
        <time>2012-01-17T15:22:48Z</time>
      </trkpt>
      <trkpt lat="46.64941" lon="6.37692">
        <ele>1167.6584472656</ele>
        <time>2012-01-17T15:22:55Z</time>
      </trkpt>
      <trkpt lat="46.64943" lon="6.3769">
        <ele>1168.1391601562</ele>
        <time>2012-01-17T15:22:56Z</time>
      </trkpt>
      <trkpt lat="46.64951" lon="6.37686">
        <ele>1170.0617675781</ele>
        <time>2012-01-17T15:23:01Z</time>
      </trkpt>
      <trkpt lat="46.64956" lon="6.37684">
        <ele>1171.0231933594</ele>
        <time>2012-01-17T15:23:04Z</time>
      </trkpt>
      <trkpt lat="46.64967" lon="6.37685">
        <ele>1173.9069824219</ele>
        <time>2012-01-17T15:23:09Z</time>
      </trkpt>
      <trkpt lat="46.64977" lon="6.37683">
        <ele>1176.3103027344</ele>
        <time>2012-01-17T15:23:14Z</time>
      </trkpt>
      <trkpt lat="46.64983" lon="6.37682">
        <ele>1177.2717285156</ele>
        <time>2012-01-17T15:23:17Z</time>
      </trkpt>
      <trkpt lat="46.64992" lon="6.37676">
        <ele>1178.7136230469</ele>
        <time>2012-01-17T15:23:22Z</time>
      </trkpt>
      <trkpt lat="46.64999" lon="6.37664">
        <ele>1178.7136230469</ele>
        <time>2012-01-17T15:23:27Z</time>
      </trkpt>
      <trkpt lat="46.65005" lon="6.37658">
        <ele>1178.7136230469</ele>
        <time>2012-01-17T15:23:31Z</time>
      </trkpt>
      <trkpt lat="46.65012" lon="6.37653">
        <ele>1178.7136230469</ele>
        <time>2012-01-17T15:23:35Z</time>
      </trkpt>
      <trkpt lat="46.65021" lon="6.3765">
        <ele>1179.6748046875</ele>
        <time>2012-01-17T15:23:40Z</time>
      </trkpt>
      <trkpt lat="46.65028" lon="6.37649">
        <ele>1180.6364746094</ele>
        <time>2012-01-17T15:23:43Z</time>
      </trkpt>
      <trkpt lat="46.65034" lon="6.37646">
        <ele>1181.1171875</ele>
        <time>2012-01-17T15:23:46Z</time>
      </trkpt>
      <trkpt lat="46.65041" lon="6.37642">
        <ele>1180.6364746094</ele>
        <time>2012-01-17T15:23:50Z</time>
      </trkpt>
      <trkpt lat="46.65053" lon="6.37638">
        <ele>1180.6364746094</ele>
        <time>2012-01-17T15:23:56Z</time>
      </trkpt>
      <trkpt lat="46.65061" lon="6.37634">
        <ele>1181.1171875</ele>
        <time>2012-01-17T15:24:00Z</time>
      </trkpt>
      <trkpt lat="46.65069" lon="6.37631">
        <ele>1180.6364746094</ele>
        <time>2012-01-17T15:24:04Z</time>
      </trkpt>
      <trkpt lat="46.65074" lon="6.37628">
        <ele>1181.1171875</ele>
        <time>2012-01-17T15:24:06Z</time>
      </trkpt>
      <trkpt lat="46.65086" lon="6.37615">
        <ele>1182.5590820312</ele>
        <time>2012-01-17T15:24:13Z</time>
      </trkpt>
      <trkpt lat="46.65095" lon="6.37597">
        <ele>1182.0783691406</ele>
        <time>2012-01-17T15:24:19Z</time>
      </trkpt>
      <trkpt lat="46.65102" lon="6.37583">
        <ele>1181.59765625</ele>
        <time>2012-01-17T15:24:24Z</time>
      </trkpt>
      <trkpt lat="46.65109" lon="6.37571">
        <ele>1181.1171875</ele>
        <time>2012-01-17T15:24:29Z</time>
      </trkpt>
      <trkpt lat="46.6511" lon="6.37567">
        <ele>1181.1171875</ele>
        <time>2012-01-17T15:24:30Z</time>
      </trkpt>
      <trkpt lat="46.65118" lon="6.37549">
        <ele>1182.0783691406</ele>
        <time>2012-01-17T15:24:36Z</time>
      </trkpt>
      <trkpt lat="46.65125" lon="6.37531">
        <ele>1183.5202636719</ele>
        <time>2012-01-17T15:24:42Z</time>
      </trkpt>
      <trkpt lat="46.6513" lon="6.3752">
        <ele>1184.9624023438</ele>
        <time>2012-01-17T15:24:46Z</time>
      </trkpt>
      <trkpt lat="46.65141" lon="6.37503">
        <ele>1185.9235839844</ele>
        <time>2012-01-17T15:24:54Z</time>
      </trkpt>
      <trkpt lat="46.65144" lon="6.37499">
        <ele>1186.884765625</ele>
        <time>2012-01-17T15:24:56Z</time>
      </trkpt>
      <trkpt lat="46.65156" lon="6.37483">
        <ele>1185.9235839844</ele>
        <time>2012-01-17T15:25:03Z</time>
      </trkpt>
      <trkpt lat="46.65161" lon="6.37466">
        <ele>1186.404296875</ele>
        <time>2012-01-17T15:25:08Z</time>
      </trkpt>
      <trkpt lat="46.6516" lon="6.37441">
        <ele>1185.9235839844</ele>
        <time>2012-01-17T15:25:14Z</time>
      </trkpt>
      <trkpt lat="46.6516" lon="6.3743">
        <ele>1186.404296875</ele>
        <time>2012-01-17T15:25:17Z</time>
      </trkpt>
      <trkpt lat="46.6516" lon="6.37413">
        <ele>1186.404296875</ele>
        <time>2012-01-17T15:25:22Z</time>
      </trkpt>
      <trkpt lat="46.65159" lon="6.374">
        <ele>1187.8461914062</ele>
        <time>2012-01-17T15:25:26Z</time>
      </trkpt>
      <trkpt lat="46.65152" lon="6.37385">
        <ele>1188.3269042969</ele>
        <time>2012-01-17T15:25:31Z</time>
      </trkpt>
      <trkpt lat="46.65146" lon="6.37368">
        <ele>1190.2495117188</ele>
        <time>2012-01-17T15:25:37Z</time>
      </trkpt>
      <trkpt lat="46.65139" lon="6.3735">
        <ele>1191.2106933594</ele>
        <time>2012-01-17T15:25:42Z</time>
      </trkpt>
      <trkpt lat="46.65134" lon="6.37335">
        <ele>1190.2495117188</ele>
        <time>2012-01-17T15:25:47Z</time>
      </trkpt>
      <trkpt lat="46.65137" lon="6.37312">
        <ele>1190.2495117188</ele>
        <time>2012-01-17T15:25:53Z</time>
      </trkpt>
      <trkpt lat="46.65142" lon="6.37301">
        <ele>1190.2495117188</ele>
        <time>2012-01-17T15:25:57Z</time>
      </trkpt>
      <trkpt lat="46.65144" lon="6.37298">
        <ele>1190.2495117188</ele>
        <time>2012-01-17T15:25:58Z</time>
      </trkpt>
      <trkpt lat="46.65151" lon="6.37284">
        <ele>1189.7687988281</ele>
        <time>2012-01-17T15:26:03Z</time>
      </trkpt>
      <trkpt lat="46.65153" lon="6.37279">
        <ele>1188.8076171875</ele>
        <time>2012-01-17T15:26:05Z</time>
      </trkpt>
      <trkpt lat="46.6516" lon="6.37269">
        <ele>1188.8076171875</ele>
        <time>2012-01-17T15:26:09Z</time>
      </trkpt>
      <trkpt lat="46.65171" lon="6.37254">
        <ele>1188.8076171875</ele>
        <time>2012-01-17T15:26:15Z</time>
      </trkpt>
      <trkpt lat="46.65183" lon="6.37245">
        <ele>1188.8076171875</ele>
        <time>2012-01-17T15:26:20Z</time>
      </trkpt>
      <trkpt lat="46.65189" lon="6.37242">
        <ele>1188.3269042969</ele>
        <time>2012-01-17T15:26:23Z</time>
      </trkpt>
      <trkpt lat="46.652" lon="6.37237">
        <ele>1189.2880859375</ele>
        <time>2012-01-17T15:26:28Z</time>
      </trkpt>
      <trkpt lat="46.6521" lon="6.37235">
        <ele>1190.7299804688</ele>
        <time>2012-01-17T15:26:32Z</time>
      </trkpt>
      <trkpt lat="46.65225" lon="6.37233">
        <ele>1193.1333007812</ele>
        <time>2012-01-17T15:26:38Z</time>
      </trkpt>
      <trkpt lat="46.65238" lon="6.3723">
        <ele>1194.5751953125</ele>
        <time>2012-01-17T15:26:43Z</time>
      </trkpt>
      <trkpt lat="46.65254" lon="6.37225">
        <ele>1194.5751953125</ele>
        <time>2012-01-17T15:26:50Z</time>
      </trkpt>
      <trkpt lat="46.65266" lon="6.37219">
        <ele>1195.0559082031</ele>
        <time>2012-01-17T15:26:55Z</time>
      </trkpt>
      <trkpt lat="46.65273" lon="6.37216">
        <ele>1195.5366210938</ele>
        <time>2012-01-17T15:26:58Z</time>
      </trkpt>
      <trkpt lat="46.65287" lon="6.37208">
        <ele>1197.4594726562</ele>
        <time>2012-01-17T15:27:04Z</time>
      </trkpt>
      <trkpt lat="46.65299" lon="6.372">
        <ele>1198.4206542969</ele>
        <time>2012-01-17T15:27:10Z</time>
      </trkpt>
      <trkpt lat="46.65308" lon="6.37195">
        <ele>1198.4206542969</ele>
        <time>2012-01-17T15:27:14Z</time>
      </trkpt>
      <trkpt lat="46.65311" lon="6.37193">
        <ele>1198.9013671875</ele>
        <time>2012-01-17T15:27:15Z</time>
      </trkpt>
      <trkpt lat="46.65317" lon="6.37186">
        <ele>1198.9013671875</ele>
        <time>2012-01-17T15:27:18Z</time>
      </trkpt>
      <trkpt lat="46.65326" lon="6.37176">
        <ele>1200.3435058594</ele>
        <time>2012-01-17T15:27:23Z</time>
      </trkpt>
      <trkpt lat="46.65335" lon="6.37161">
        <ele>1201.3046875</ele>
        <time>2012-01-17T15:27:28Z</time>
      </trkpt>
      <trkpt lat="46.65338" lon="6.37141">
        <ele>1201.3046875</ele>
        <time>2012-01-17T15:27:33Z</time>
      </trkpt>
      <trkpt lat="46.6534" lon="6.37121">
        <ele>1198.9013671875</ele>
        <time>2012-01-17T15:27:38Z</time>
      </trkpt>
      <trkpt lat="46.65341" lon="6.37102">
        <ele>1196.4982910156</ele>
        <time>2012-01-17T15:27:43Z</time>
      </trkpt>
      <trkpt lat="46.65338" lon="6.37088">
        <ele>1195.0559082031</ele>
        <time>2012-01-17T15:27:47Z</time>
      </trkpt>
      <trkpt lat="46.65328" lon="6.37063">
        <ele>1192.6528320312</ele>
        <time>2012-01-17T15:27:54Z</time>
      </trkpt>
      <trkpt lat="46.65322" lon="6.37048">
        <ele>1191.69140625</ele>
        <time>2012-01-17T15:27:58Z</time>
      </trkpt>
      <trkpt lat="46.65313" lon="6.37031">
        <ele>1191.2106933594</ele>
        <time>2012-01-17T15:28:03Z</time>
      </trkpt>
      <trkpt lat="46.65298" lon="6.37008">
        <ele>1190.2495117188</ele>
        <time>2012-01-17T15:28:10Z</time>
      </trkpt>
      <trkpt lat="46.65284" lon="6.3699">
        <ele>1189.7687988281</ele>
        <time>2012-01-17T15:28:16Z</time>
      </trkpt>
      <trkpt lat="46.65272" lon="6.36974">
        <ele>1189.7687988281</ele>
        <time>2012-01-17T15:28:21Z</time>
      </trkpt>
      <trkpt lat="46.6526" lon="6.36958">
        <ele>1188.8076171875</ele>
        <time>2012-01-17T15:28:26Z</time>
      </trkpt>
      <trkpt lat="46.65247" lon="6.36939">
        <ele>1187.3654785156</ele>
        <time>2012-01-17T15:28:32Z</time>
      </trkpt>
      <trkpt lat="46.65237" lon="6.36926">
        <ele>1186.884765625</ele>
        <time>2012-01-17T15:28:36Z</time>
      </trkpt>
      <trkpt lat="46.65222" lon="6.36909">
        <ele>1185.9235839844</ele>
        <time>2012-01-17T15:28:42Z</time>
      </trkpt>
      <trkpt lat="46.65206" lon="6.36889">
        <ele>1184.9624023438</ele>
        <time>2012-01-17T15:28:48Z</time>
      </trkpt>
      <trkpt lat="46.65196" lon="6.36877">
        <ele>1184.0009765625</ele>
        <time>2012-01-17T15:28:52Z</time>
      </trkpt>
      <trkpt lat="46.65181" lon="6.36857">
        <ele>1184.0009765625</ele>
        <time>2012-01-17T15:28:58Z</time>
      </trkpt>
      <trkpt lat="46.65167" lon="6.36838">
        <ele>1184.9624023438</ele>
        <time>2012-01-17T15:29:04Z</time>
      </trkpt>
      <trkpt lat="46.65157" lon="6.36825">
        <ele>1184.9624023438</ele>
        <time>2012-01-17T15:29:08Z</time>
      </trkpt>
      <trkpt lat="46.65146" lon="6.36814">
        <ele>1184.9624023438</ele>
        <time>2012-01-17T15:29:12Z</time>
      </trkpt>
      <trkpt lat="46.65133" lon="6.368">
        <ele>1184.4816894531</ele>
        <time>2012-01-17T15:29:17Z</time>
      </trkpt>
      <trkpt lat="46.65117" lon="6.36781">
        <ele>1183.0395507812</ele>
        <time>2012-01-17T15:29:23Z</time>
      </trkpt>
      <trkpt lat="46.65101" lon="6.36764">
        <ele>1184.0009765625</ele>
        <time>2012-01-17T15:29:29Z</time>
      </trkpt>
      <trkpt lat="46.65091" lon="6.36751">
        <ele>1184.4816894531</ele>
        <time>2012-01-17T15:29:33Z</time>
      </trkpt>
      <trkpt lat="46.65076" lon="6.36732">
        <ele>1185.4428710938</ele>
        <time>2012-01-17T15:29:39Z</time>
      </trkpt>
      <trkpt lat="46.65066" lon="6.36718">
        <ele>1184.9624023438</ele>
        <time>2012-01-17T15:29:43Z</time>
      </trkpt>
      <trkpt lat="46.65054" lon="6.36701">
        <ele>1184.4816894531</ele>
        <time>2012-01-17T15:29:48Z</time>
      </trkpt>
      <trkpt lat="46.65041" lon="6.36684">
        <ele>1184.0009765625</ele>
        <time>2012-01-17T15:29:53Z</time>
      </trkpt>
      <trkpt lat="46.65024" lon="6.3666">
        <ele>1184.9624023438</ele>
        <time>2012-01-17T15:30:00Z</time>
      </trkpt>
      <trkpt lat="46.65009" lon="6.36642">
        <ele>1184.4816894531</ele>
        <time>2012-01-17T15:30:06Z</time>
      </trkpt>
      <trkpt lat="46.65002" lon="6.36632">
        <ele>1184.9624023438</ele>
        <time>2012-01-17T15:30:10Z</time>
      </trkpt>
    </trkseg>
  </trk>
</gpx>